Terminal Aerodrome Forecast
Issued by NWS Sterling, VA

Current Version | Previous Version | Graphics & Text | Print | Product List | Glossary On
Versions: 1 2 3 4 5 6 7 8 9 10 11 12 13 14 15 16 17 18 19 20 21 22 23 24 25 26 27 28 29 30 31
000
FTUS41 KLWX 042131 AAB
TAFDCA
TAF AMD
KDCA 042131Z 0422/0518 21010KT P6SM VCTS SCT050CB
      TEMPO 0423/0501 5SM -TSRA BR BKN030CB
     FM050100 35007KT P6SM SCT050
     FM050600 34005KT P6SM SCT080
     FM051600 29010G16KT P6SM FEW250=

USA.gov is the U.S. government's official web portal to all federal, state and local government web resources and services.